sensor_id;sensor_type;location;lat;lon;timestamp;pressure;altitude;pressure_sealevel;temperature;humidity
20710;BME280;10516;51.518;9.864;2023-01-28T00:00:51;99827.25;;;-0.54;91.25
20710;BME280;10516;51.518;9.864;2023-01-28T00:03:17;99822.41;;;-0.66;91.51
20710;BME280;10516;51.518;9.864;2023-01-28T00:05:42;99824.84;;;-1.08;91.77
20710;BME280;10516;51.518;9.864;2023-01-28T00:08:08;99818.31;;;-0.87;92.16
20710;BME280;10516;51.518;9.864;2023-01-28T00:10:36;99815.28;;;-0.74;91.72
20710;BME280;10516;51.518;9.864;2023-01-28T00:13:04;99813.03;;;-1.12;91.38
20710;BME280;10516;51.518;9.864;2023-01-28T00:15:29;99823.66;;;-0.96;92.91
20710;BME280;10516;51.518;9.864;2023-01-28T00:17:54;99823.66;;;-0.96;91.93
20710;BME280;10516;51.518;9.864;2023-01-28T00:20:20;99823.56;;;-1.39;90.89
20710;BME280;10516;51.518;9.864;2023-01-28T00:22:47;99821.13;;;-0.62;92.89
20710;BME280;10516;51.518;9.864;2023-01-28T00:25:13;99817.78;;;-0.72;90.52
20710;BME280;10516;51.518;9.864;2023-01-28T00:27:38;99808.47;;;-1.28;90.84
20710;BME280;10516;51.518;9.864;2023-01-28T00:30:04;99787.72;;;-1.57;91.33
20710;BME280;10516;51.518;9.864;2023-01-28T00:32:31;99809.88;;;-1.51;92.02
20710;BME280;10516;51.518;9.864;2023-01-28T00:34:56;99811.38;;;-1.31;91.97
20710;BME280;10516;51.518;9.864;2023-01-28T00:37:22;99818.56;;;-1.15;91.55
20710;BME280;10516;51.518;9.864;2023-01-28T00:39:48;99809.50;;;-0.60;91.41
20710;BME280;10516;51.518;9.864;2023-01-28T00:42:13;99816.16;;;-1.26;91.78
20710;BME280;10516;51.518;9.864;2023-01-28T00:44:39;99810.69;;;-1.51;91.94
20710;BME280;10516;51.518;9.864;2023-01-28T00:47:04;99796.59;;;-1.40;91.35
20710;BME280;10516;51.518;9.864;2023-01-28T00:49:29;99800.13;;;-0.88;91.57
20710;BME280;10516;51.518;9.864;2023-01-28T00:51:55;99819.38;;;-0.80;91.32
20710;BME280;10516;51.518;9.864;2023-01-28T00:54:20;99805.84;;;-1.45;90.41
20710;BME280;10516;51.518;9.864;2023-01-28T00:56:46;99812.31;;;-1.22;91.52
20710;BME280;10516;51.518;9.864;2023-01-28T00:59:11;99804.19;;;-1.11;89.73
20710;BME280;10516;51.518;9.864;2023-01-28T01:01:38;99793.25;;;-0.89;90.91
20710;BME280;10516;51.518;9.864;2023-01-28T01:04:03;99797.16;;;-0.93;88.59
20710;BME280;10516;51.518;9.864;2023-01-28T01:06:34;99801.94;;;-1.59;89.24
20710;BME280;10516;51.518;9.864;2023-01-28T01:09:00;99817.28;;;-1.64;91.01
20710;BME280;10516;51.518;9.864;2023-01-28T01:11:25;99818.78;;;-1.44;90.76
20710;BME280;10516;51.518;9.864;2023-01-28T01:13:56;99828.16;;;-1.06;92.22
20710;BME280;10516;51.518;9.864;2023-01-28T01:16:24;99819.41;;;-1.77;91.38
20710;BME280;10516;51.518;9.864;2023-01-28T01:18:51;99824.25;;;-1.82;91.56
20710;BME280;10516;51.518;9.864;2023-01-28T01:21:19;99829.75;;;-1.58;91.77
20710;BME280;10516;51.518;9.864;2023-01-28T01:23:45;99813.28;;;-1.86;91.23
20710;BME280;10516;51.518;9.864;2023-01-28T01:26:11;99826.47;;;-1.87;92.13
20710;BME280;10516;51.518;9.864;2023-01-28T01:28:37;99827.75;;;-1.64;91.35
20710;BME280;10516;51.518;9.864;2023-01-28T01:31:04;99820.88;;;-1.92;90.83
20710;BME280;10516;51.518;9.864;2023-01-28T01:33:30;99826.78;;;-1.90;91.38
20710;BME280;10516;51.518;9.864;2023-01-28T01:35:56;99827.22;;;-1.95;91.45
20710;BME280;10516;51.518;9.864;2023-01-28T01:38:22;99839.94;;;-1.82;92.96
20710;BME280;10516;51.518;9.864;2023-01-28T01:40:47;99826.28;;;-1.31;91.58
20710;BME280;10516;51.518;9.864;2023-01-28T01:43:21;99840.19;;;-1.31;90.06
20710;BME280;10516;51.518;9.864;2023-01-28T01:45:50;99849.28;;;-1.53;91.05
20710;BME280;10516;51.518;9.864;2023-01-28T01:48:21;99856.78;;;-1.58;91.45
20710;BME280;10516;51.518;9.864;2023-01-28T01:50:55;99839.47;;;-1.95;91.28
20710;BME280;10516;51.518;9.864;2023-01-28T01:53:24;99848.03;;;-2.03;92.63
20710;BME280;10516;51.518;9.864;2023-01-28T01:55:52;99850.53;;;-2.11;92.55
20710;BME280;10516;51.518;9.864;2023-01-28T01:58:23;99846.44;;;-1.86;92.79
20710;BME280;10516;51.518;9.864;2023-01-28T02:00:49;99841.47;;;-1.80;92.04
20710;BME280;10516;51.518;9.864;2023-01-28T02:03:18;99842.78;;;-1.66;91.24
20710;BME280;10516;51.518;9.864;2023-01-28T02:05:48;99831.34;;;-1.75;91.70
20710;BME280;10516;51.518;9.864;2023-01-28T02:08:14;99833.31;;;-1.77;90.89
20710;BME280;10516;51.518;9.864;2023-01-28T02:10:52;99843.81;;;-1.59;92.51
20710;BME280;10516;51.518;9.864;2023-01-28T02:13:22;99837.19;;;-1.81;90.48
20710;BME280;10516;51.518;9.864;2023-01-28T02:15:50;99846.75;;;-1.62;91.92
20710;BME280;10516;51.518;9.864;2023-01-28T02:18:15;99846.88;;;-1.64;90.21
20710;BME280;10516;51.518;9.864;2023-01-28T02:23:54;99854.22;;;-1.77;90.72
20710;BME280;10516;51.518;9.864;2023-01-28T02:26:43;99849.56;;;-1.73;90.62
20710;BME280;10516;51.518;9.864;2023-01-28T02:32:06;99851.09;;;-1.53;89.52
20710;BME280;10516;51.518;9.864;2023-01-28T02:34:50;99858.69;;;-1.87;90.30
20710;BME280;10516;51.518;9.864;2023-01-28T02:37:21;99840.78;;;-1.02;91.34
20710;BME280;10516;51.518;9.864;2023-01-28T02:39:54;99861.59;;;-1.63;90.31
20710;BME280;10516;51.518;9.864;2023-01-28T02:42:30;99866.34;;;-1.48;90.28
20710;BME280;10516;51.518;9.864;2023-01-28T02:44:56;99864.88;;;-1.51;89.92
20710;BME280;10516;51.518;9.864;2023-01-28T02:47:21;99868.75;;;-1.37;89.93
20710;BME280;10516;51.518;9.864;2023-01-28T02:50:11;99865.00;;;-1.35;89.55
20710;BME280;10516;51.518;9.864;2023-01-28T02:58:45;99862.03;;;-1.40;88.49
20710;BME280;10516;51.518;9.864;2023-01-28T03:01:24;99871.72;;;-1.05;89.72
20710;BME280;10516;51.518;9.864;2023-01-28T03:03:58;99875.72;;;-1.28;88.70
20710;BME280;10516;51.518;9.864;2023-01-28T03:06:29;99869.66;;;-1.11;89.02
20710;BME280;10516;51.518;9.864;2023-01-28T03:08:59;99879.94;;;-1.63;88.79
20710;BME280;10516;51.518;9.864;2023-01-28T03:12:21;99878.66;;;-1.31;90.90
20710;BME280;10516;51.518;9.864;2023-01-28T03:15:17;99882.94;;;-0.95;90.03
20710;BME280;10516;51.518;9.864;2023-01-28T03:18:09;99874.00;;;-1.02;88.53
20710;BME280;10516;51.518;9.864;2023-01-28T03:21:31;99878.34;;;-0.58;90.19
20710;BME280;10516;51.518;9.864;2023-01-28T03:24:36;99872.44;;;-0.34;86.40
20710;BME280;10516;51.518;9.864;2023-01-28T03:30:38;99875.63;;;-0.23;88.56
20710;BME280;10516;51.518;9.864;2023-01-28T03:33:24;99886.00;;;0.13;86.38
20710;BME280;10516;51.518;9.864;2023-01-28T03:36:09;99880.69;;;-0.72;86.92
20710;BME280;10516;51.518;9.864;2023-01-28T03:38:53;99880.38;;;-1.22;87.95
20710;BME280;10516;51.518;9.864;2023-01-28T03:41:24;99888.09;;;-0.86;88.97
20710;BME280;10516;51.518;9.864;2023-01-28T03:43:50;99889.66;;;-0.75;87.51
20710;BME280;10516;51.518;9.864;2023-01-28T03:46:16;99884.13;;;-1.25;87.85
20710;BME280;10516;51.518;9.864;2023-01-28T03:48:42;99891.50;;;-1.38;88.59
20710;BME280;10516;51.518;9.864;2023-01-28T03:51:08;99896.41;;;-1.08;89.92
20710;BME280;10516;51.518;9.864;2023-01-28T03:53:34;99894.91;;;-0.75;89.24
20710;BME280;10516;51.518;9.864;2023-01-28T03:55:59;99883.88;;;-0.79;87.07
20710;BME280;10516;51.518;9.864;2023-01-28T03:58:25;99896.44;;;-1.35;88.24
20710;BME280;10516;51.518;9.864;2023-01-28T04:00:52;99886.44;;;-0.69;88.97
20710;BME280;10516;51.518;9.864;2023-01-28T04:03:19;99890.06;;;-0.70;88.66
20710;BME280;10516;51.518;9.864;2023-01-28T04:05:57;99873.44;;;-0.96;87.40
20710;BME280;10516;51.518;9.864;2023-01-28T04:08:23;99884.59;;;-0.94;88.37
20710;BME280;10516;51.518;9.864;2023-01-28T04:10:49;99878.59;;;-1.04;88.16
20710;BME280;10516;51.518;9.864;2023-01-28T04:13:14;99884.09;;;-0.72;88.43
20710;BME280;10516;51.518;9.864;2023-01-28T04:15:41;99890.19;;;-0.71;87.65
20710;BME280;10516;51.518;9.864;2023-01-28T04:18:07;99885.34;;;-0.41;87.54
20710;BME280;10516;51.518;9.864;2023-01-28T04:20:33;99879.84;;;-0.55;87.73
20710;BME280;10516;51.518;9.864;2023-01-28T04:22:59;99888.94;;;-1.03;86.89
20710;BME280;10516;51.518;9.864;2023-01-28T04:25:24;99880.97;;;-0.58;88.08
20710;BME280;10516;51.518;9.864;2023-01-28T04:27:49;99887.72;;;-0.91;86.30
20710;BME280;10516;51.518;9.864;2023-01-28T04:30:15;99882.16;;;-1.40;87.79
20710;BME280;10516;51.518;9.864;2023-01-28T04:32:40;99879.00;;;-1.26;87.93
20710;BME280;10516;51.518;9.864;2023-01-28T04:35:06;99879.00;;;-0.56;89.38
20710;BME280;10516;51.518;9.864;2023-01-28T04:37:31;99885.59;;;-0.69;88.80
20710;BME280;10516;51.518;9.864;2023-01-28T04:39:57;99890.72;;;-1.03;89.07
20710;BME280;10516;51.518;9.864;2023-01-28T04:42:22;99880.53;;;-1.06;88.39
20710;BME280;10516;51.518;9.864;2023-01-28T04:44:47;99872.38;;;-0.68;87.69
20710;BME280;10516;51.518;9.864;2023-01-28T04:47:13;99886.63;;;-0.19;87.66
20710;BME280;10516;51.518;9.864;2023-01-28T04:49:38;99888.34;;;-1.41;84.08
20710;BME280;10516;51.518;9.864;2023-01-28T04:52:04;99883.94;;;-1.68;83.94
20710;BME280;10516;51.518;9.864;2023-01-28T04:54:29;99893.03;;;-1.72;83.99
20710;BME280;10516;51.518;9.864;2023-01-28T04:56:54;99902.81;;;-1.65;85.25
20710;BME280;10516;51.518;9.864;2023-01-28T04:59:20;99898.97;;;-1.43;85.22
20710;BME280;10516;51.518;9.864;2023-01-28T05:01:48;99894.38;;;-1.59;85.03
20710;BME280;10516;51.518;9.864;2023-01-28T05:04:14;99891.69;;;-1.04;85.97
20710;BME280;10516;51.518;9.864;2023-01-28T05:06:41;99900.56;;;-1.32;84.67
20710;BME280;10516;51.518;9.864;2023-01-28T05:09:07;99888.38;;;-0.71;86.95
20710;BME280;10516;51.518;9.864;2023-01-28T05:11:32;99908.06;;;-1.02;84.89
20710;BME280;10516;51.518;9.864;2023-01-28T05:13:57;99901.44;;;-1.69;82.29
20710;BME280;10516;51.518;9.864;2023-01-28T05:16:23;99899.09;;;-1.62;81.92
20710;BME280;10516;51.518;9.864;2023-01-28T05:18:48;99904.44;;;-1.64;81.63
20710;BME280;10516;51.518;9.864;2023-01-28T05:21:16;99899.63;;;-1.68;82.18
20710;BME280;10516;51.518;9.864;2023-01-28T05:23:42;99902.00;;;-1.75;83.94
20710;BME280;10516;51.518;9.864;2023-01-28T05:26:07;99908.50;;;-1.07;86.08
20710;BME280;10516;51.518;9.864;2023-01-28T05:28:32;99908.13;;;-1.29;82.86
20710;BME280;10516;51.518;9.864;2023-01-28T05:31:03;99904.44;;;-1.64;82.32
20710;BME280;10516;51.518;9.864;2023-01-28T05:33:28;99901.19;;;-1.48;83.92
20710;BME280;10516;51.518;9.864;2023-01-28T05:35:53;99897.22;;;-1.79;82.07
20710;BME280;10516;51.518;9.864;2023-01-28T05:38:19;99892.44;;;-1.57;82.54
20710;BME280;10516;51.518;9.864;2023-01-28T05:40:46;99906.09;;;-1.63;81.94
20710;BME280;10516;51.518;9.864;2023-01-28T05:43:12;99909.31;;;-1.69;82.34
20710;BME280;10516;51.518;9.864;2023-01-28T05:45:37;99912.09;;;-1.53;82.41
20710;BME280;10516;51.518;9.864;2023-01-28T05:48:03;99903.94;;;-1.40;82.40
20710;BME280;10516;51.518;9.864;2023-01-28T05:50:28;99907.16;;;-1.28;81.85
20710;BME280;10516;51.518;9.864;2023-01-28T05:52:53;99909.75;;;-1.28;82.67
20710;BME280;10516;51.518;9.864;2023-01-28T05:55:19;99909.88;;;-1.20;81.83
20710;BME280;10516;51.518;9.864;2023-01-28T05:57:44;99914.66;;;-0.98;83.29
20710;BME280;10516;51.518;9.864;2023-01-28T06:00:10;99902.31;;;-0.70;84.04
20710;BME280;10516;51.518;9.864;2023-01-28T06:02:36;99922.19;;;-0.68;81.57
20710;BME280;10516;51.518;9.864;2023-01-28T06:05:01;99918.22;;;-1.34;82.30
20710;BME280;10516;51.518;9.864;2023-01-28T06:07:26;99926.44;;;-1.84;82.94
20710;BME280;10516;51.518;9.864;2023-01-28T06:09:52;99924.50;;;-1.82;83.35
20710;BME280;10516;51.518;9.864;2023-01-28T06:12:17;99938.56;;;-0.84;85.22
20710;BME280;10516;51.518;9.864;2023-01-28T06:14:42;99936.25;;;-1.59;81.51
20710;BME280;10516;51.518;9.864;2023-01-28T06:17:08;99925.38;;;-1.64;81.58
20710;BME280;10516;51.518;9.864;2023-01-28T06:19:33;99920.13;;;-1.64;80.97
20710;BME280;10516;51.518;9.864;2023-01-28T06:21:59;99936.47;;;-1.79;80.04
20710;BME280;10516;51.518;9.864;2023-01-28T06:24:24;99936.75;;;-1.82;80.22
20710;BME280;10516;51.518;9.864;2023-01-28T06:26:50;99931.00;;;-1.95;79.32
20710;BME280;10516;51.518;9.864;2023-01-28T06:29:15;99932.44;;;-1.64;80.38
20710;BME280;10516;51.518;9.864;2023-01-28T06:31:40;99936.56;;;-1.71;79.89
20710;BME280;10516;51.518;9.864;2023-01-28T06:34:06;99944.34;;;-1.79;79.30
20710;BME280;10516;51.518;9.864;2023-01-28T06:36:32;99946.34;;;-1.36;82.70
20710;BME280;10516;51.518;9.864;2023-01-28T06:38:58;99942.94;;;-1.46;80.07
20710;BME280;10516;51.518;9.864;2023-01-28T06:41:24;99946.84;;;-1.33;80.40
20710;BME280;10516;51.518;9.864;2023-01-28T06:43:49;99954.44;;;-1.30;79.61
20710;BME280;10516;51.518;9.864;2023-01-28T06:46:15;99952.41;;;-1.36;82.30
20710;BME280;10516;51.518;9.864;2023-01-28T06:48:40;99939.78;;;-1.50;79.82
20710;BME280;10516;51.518;9.864;2023-01-28T06:51:05;99934.16;;;-0.83;81.24
20710;BME280;10516;51.518;9.864;2023-01-28T06:53:31;99955.56;;;-0.70;78.95
20710;BME280;10516;51.518;9.864;2023-01-28T06:55:56;99958.28;;;-1.61;78.76
20710;BME280;10516;51.518;9.864;2023-01-28T06:58:21;99952.03;;;-1.51;79.75
20710;BME280;10516;51.518;9.864;2023-01-28T07:00:47;99944.06;;;-1.04;79.72
20710;BME280;10516;51.518;9.864;2023-01-28T07:03:12;99959.16;;;-0.89;80.61
20710;BME280;10516;51.518;9.864;2023-01-28T07:05:37;99958.31;;;-1.34;79.11
20710;BME280;10516;51.518;9.864;2023-01-28T07:08:03;99954.41;;;-0.85;80.45
20710;BME280;10516;51.518;9.864;2023-01-28T07:10:29;99965.53;;;-1.18;80.81
20710;BME280;10516;51.518;9.864;2023-01-28T07:12:54;99958.84;;;-1.30;78.91
20710;BME280;10516;51.518;9.864;2023-01-28T07:15:20;99951.00;;;-0.86;80.42
20710;BME280;10516;51.518;9.864;2023-01-28T07:17:45;99960.81;;;-1.69;78.85
20710;BME280;10516;51.518;9.864;2023-01-28T07:20:12;99950.94;;;-1.21;79.93
20710;BME280;10516;51.518;9.864;2023-01-28T07:22:40;99955.63;;;-0.97;79.26
20710;BME280;10516;51.518;9.864;2023-01-28T07:25:07;99958.81;;;-1.21;78.75
20710;BME280;10516;51.518;9.864;2023-01-28T07:27:32;99946.31;;;-1.27;79.38
20710;BME280;10516;51.518;9.864;2023-01-28T07:29:58;99948.47;;;-1.49;78.11
20710;BME280;10516;51.518;9.864;2023-01-28T07:32:23;99953.31;;;-1.55;78.89
20710;BME280;10516;51.518;9.864;2023-01-28T07:34:51;99952.50;;;-1.28;81.54
20710;BME280;10516;51.518;9.864;2023-01-28T07:37:16;99956.94;;;-1.11;80.78
20710;BME280;10516;51.518;9.864;2023-01-28T07:39:41;99957.16;;;-1.04;79.54
20710;BME280;10516;51.518;9.864;2023-01-28T07:42:07;99936.44;;;-1.42;78.56
20710;BME280;10516;51.518;9.864;2023-01-28T07:44:33;99946.38;;;-1.46;79.23
20710;BME280;10516;51.518;9.864;2023-01-28T07:46:59;99930.22;;;-1.14;81.54
20710;BME280;10516;51.518;9.864;2023-01-28T07:49:25;99954.88;;;-1.07;81.01
20710;BME280;10516;51.518;9.864;2023-01-28T07:51:50;99958.19;;;-0.70;81.38
20710;BME280;10516;51.518;9.864;2023-01-28T07:54:16;99952.94;;;-0.88;78.69
20710;BME280;10516;51.518;9.864;2023-01-28T07:56:44;99953.91;;;-1.33;78.13
20710;BME280;10516;51.518;9.864;2023-01-28T07:59:10;99962.44;;;-0.69;80.85
20710;BME280;10516;51.518;9.864;2023-01-28T08:01:35;99957.81;;;-0.75;77.99
20710;BME280;10516;51.518;9.864;2023-01-28T08:04:00;99934.06;;;-0.91;77.07
20710;BME280;10516;51.518;9.864;2023-01-28T08:06:28;99957.63;;;-1.09;77.35
20710;BME280;10516;51.518;9.864;2023-01-28T08:08:53;99958.72;;;-1.29;77.69
20710;BME280;10516;51.518;9.864;2023-01-28T08:11:19;99964.44;;;-0.98;78.09
20710;BME280;10516;51.518;9.864;2023-01-28T08:13:45;99965.34;;;-1.07;78.16
20710;BME280;10516;51.518;9.864;2023-01-28T08:16:10;99957.22;;;-1.31;77.94
20710;BME280;10516;51.518;9.864;2023-01-28T08:18:36;99959.81;;;-0.69;80.00
20710;BME280;10516;51.518;9.864;2023-01-28T08:21:01;99949.50;;;-1.15;76.88
20710;BME280;10516;51.518;9.864;2023-01-28T08:23:27;99965.81;;;-0.94;77.74
20710;BME280;10516;51.518;9.864;2023-01-28T08:25:53;99967.50;;;-1.20;77.03
20710;BME280;10516;51.518;9.864;2023-01-28T08:28:20;99971.00;;;-1.39;77.40
20710;BME280;10516;51.518;9.864;2023-01-28T08:30:46;99976.09;;;-0.83;78.75
20710;BME280;10516;51.518;9.864;2023-01-28T08:33:12;99975.38;;;-1.03;77.42
20710;BME280;10516;51.518;9.864;2023-01-28T08:35:38;99974.53;;;-1.30;76.27
20710;BME280;10516;51.518;9.864;2023-01-28T08:38:05;99979.06;;;-1.23;77.51
20710;BME280;10516;51.518;9.864;2023-01-28T08:40:31;99983.19;;;-1.57;76.33
20710;BME280;10516;51.518;9.864;2023-01-28T08:42:56;99975.34;;;-1.20;76.92
20710;BME280;10516;51.518;9.864;2023-01-28T08:45:24;99967.28;;;-1.09;77.25
20710;BME280;10516;51.518;9.864;2023-01-28T08:47:52;99977.78;;;-1.09;76.45
20710;BME280;10516;51.518;9.864;2023-01-28T08:50:18;99978.59;;;-1.36;75.79
20710;BME280;10516;51.518;9.864;2023-01-28T08:52:45;99987.25;;;-1.35;75.85
20710;BME280;10516;51.518;9.864;2023-01-28T08:55:12;99990.63;;;-1.16;76.17
20710;BME280;10516;51.518;9.864;2023-01-28T08:57:38;99996.28;;;-1.20;75.09
20710;BME280;10516;51.518;9.864;2023-01-28T09:00:05;99991.31;;;-1.14;76.01
20710;BME280;10516;51.518;9.864;2023-01-28T09:02:30;100012.84;;;-1.02;76.18
20710;BME280;10516;51.518;9.864;2023-01-28T09:04:56;100016.81;;;-0.71;74.53
20710;BME280;10516;51.518;9.864;2023-01-28T09:07:22;100012.69;;;-0.73;75.61
20710;BME280;10516;51.518;9.864;2023-01-28T09:09:47;100021.63;;;-0.14;77.86
20710;BME280;10516;51.518;9.864;2023-01-28T09:12:12;100030.66;;;0.10;75.39
20710;BME280;10516;51.518;9.864;2023-01-28T09:14:38;100027.56;;;-0.29;74.88
20710;BME280;10516;51.518;9.864;2023-01-28T09:17:04;100023.47;;;-0.06;76.75
20710;BME280;10516;51.518;9.864;2023-01-28T09:19:29;100035.88;;;0.53;76.94
20710;BME280;10516;51.518;9.864;2023-01-28T09:21:55;100018.53;;;-0.80;74.12
20710;BME280;10516;51.518;9.864;2023-01-28T09:24:20;100027.41;;;-0.45;77.96
20710;BME280;10516;51.518;9.864;2023-01-28T09:26:48;100032.38;;;0.19;77.48
20710;BME280;10516;51.518;9.864;2023-01-28T09:29:13;100042.66;;;-1.03;74.41
20710;BME280;10516;51.518;9.864;2023-01-28T09:31:40;100043.19;;;-1.00;75.05
20710;BME280;10516;51.518;9.864;2023-01-28T09:34:06;100052.44;;;-0.78;75.35
20710;BME280;10516;51.518;9.864;2023-01-28T09:36:31;100059.22;;;-0.58;76.82
20710;BME280;10516;51.518;9.864;2023-01-28T09:38:57;100053.47;;;-1.16;75.77
20710;BME280;10516;51.518;9.864;2023-01-28T09:43:55;100059.09;;;-0.39;75.73
20710;BME280;10516;51.518;9.864;2023-01-28T09:46:34;100056.81;;;-1.70;74.10
20710;BME280;10516;51.518;9.864;2023-01-28T09:49:10;100065.63;;;-1.24;74.86
20710;BME280;10516;51.518;9.864;2023-01-28T09:51:50;100054.78;;;-1.29;74.89
20710;BME280;10516;51.518;9.864;2023-01-28T09:54:37;100057.22;;;-1.28;74.16
20710;BME280;10516;51.518;9.864;2023-01-28T09:57:12;100063.84;;;-1.24;74.33
20710;BME280;10516;51.518;9.864;2023-01-28T09:59:41;100066.53;;;-1.53;73.76
20710;BME280;10516;51.518;9.864;2023-01-28T10:07:41;100082.84;;;-1.78;74.97
20710;BME280;10516;51.518;9.864;2023-01-28T10:10:15;100077.31;;;-1.65;74.32
20710;BME280;10516;51.518;9.864;2023-01-28T10:15:53;100075.31;;;-1.34;74.28
20710;BME280;10516;51.518;9.864;2023-01-28T10:21:07;100073.53;;;-1.43;73.59
20710;BME280;10516;51.518;9.864;2023-01-28T10:23:50;100070.91;;;-1.34;74.03
20710;BME280;10516;51.518;9.864;2023-01-28T10:26:23;100070.75;;;-1.32;74.26
20710;BME280;10516;51.518;9.864;2023-01-28T10:28:56;100056.69;;;-0.95;76.99
20710;BME280;10516;51.518;9.864;2023-01-28T10:31:23;100057.59;;;-0.41;77.04
20710;BME280;10516;51.518;9.864;2023-01-28T10:33:53;100063.88;;;-0.52;76.94
20710;BME280;10516;51.518;9.864;2023-01-28T10:36:18;100069.56;;;-0.56;73.56
20710;BME280;10516;51.518;9.864;2023-01-28T10:38:44;100065.78;;;-0.44;73.49
20710;BME280;10516;51.518;9.864;2023-01-28T10:41:12;100072.00;;;-0.28;73.15
20710;BME280;10516;51.518;9.864;2023-01-28T10:43:41;100061.72;;;-0.39;75.19
20710;BME280;10516;51.518;9.864;2023-01-28T10:46:12;100063.22;;;-0.36;73.67
20710;BME280;10516;51.518;9.864;2023-01-28T10:48:46;100063.88;;;-0.52;71.88
20710;BME280;10516;51.518;9.864;2023-01-28T10:51:13;100062.81;;;0.12;74.49
20710;BME280;10516;51.518;9.864;2023-01-28T10:53:43;100050.63;;;-0.33;71.12
20710;BME280;10516;51.518;9.864;2023-01-28T10:56:33;100062.72;;;-0.40;72.19
20710;BME280;10516;51.518;9.864;2023-01-28T10:59:02;100060.09;;;-0.22;72.69
20710;BME280;10516;51.518;9.864;2023-01-28T11:04:16;100053.91;;;-0.66;72.45
20710;BME280;10516;51.518;9.864;2023-01-28T11:06:51;100051.78;;;-1.07;73.89
20710;BME280;10516;51.518;9.864;2023-01-28T11:09:22;100062.56;;;-0.83;72.89
20710;BME280;10516;51.518;9.864;2023-01-28T11:11:47;100045.47;;;-0.87;73.91
20710;BME280;10516;51.518;9.864;2023-01-28T11:14:25;100057.78;;;-0.97;73.09
20710;BME280;10516;51.518;9.864;2023-01-28T11:16:52;100044.84;;;-0.54;74.99
20710;BME280;10516;51.518;9.864;2023-01-28T11:19:21;100052.72;;;-0.36;73.51
20710;BME280;10516;51.518;9.864;2023-01-28T11:21:54;100040.13;;;-0.33;73.61
20710;BME280;10516;51.518;9.864;2023-01-28T11:24:24;100054.28;;;-0.61;73.51
20710;BME280;10516;51.518;9.864;2023-01-28T11:26:53;100039.72;;;-1.00;73.66
20710;BME280;10516;51.518;9.864;2023-01-28T11:29:31;100046.81;;;-1.10;72.97
20710;BME280;10516;51.518;9.864;2023-01-28T11:31:58;100037.13;;;0.15;77.39
20710;BME280;10516;51.518;9.864;2023-01-28T11:34:26;100042.47;;;0.83;75.52
20710;BME280;10516;51.518;9.864;2023-01-28T11:37:12;100031.44;;;0.02;72.19
20710;BME280;10516;51.518;9.864;2023-01-28T11:39:40;100027.00;;;-0.33;73.16
20710;BME280;10516;51.518;9.864;2023-01-28T11:42:17;100023.53;;;0.20;75.25
20710;BME280;10516;51.518;9.864;2023-01-28T11:44:43;100021.91;;;-0.17;72.43
20710;BME280;10516;51.518;9.864;2023-01-28T11:47:42;100024.38;;;-0.15;71.77
20710;BME280;10516;51.518;9.864;2023-01-28T12:04:17;100033.47;;;-0.27;71.59
20710;BME280;10516;51.518;9.864;2023-01-28T12:06:58;100035.75;;;0.11;71.79
20710;BME280;10516;51.518;9.864;2023-01-28T12:09:43;100039.13;;;1.14;76.18
20710;BME280;10516;51.518;9.864;2023-01-28T12:15:17;100045.09;;;-0.12;72.87
20710;BME280;10516;51.518;9.864;2023-01-28T12:18:47;100037.22;;;-0.12;72.63
20710;BME280;10516;51.518;9.864;2023-01-28T12:24:05;100036.78;;;1.03;72.59
20710;BME280;10516;51.518;9.864;2023-01-28T12:26:55;100026.88;;;-0.31;71.04
20710;BME280;10516;51.518;9.864;2023-01-28T12:29:43;100006.91;;;0.37;75.30
20710;BME280;10516;51.518;9.864;2023-01-28T12:41:21;100043.72;;;-0.51;72.47
20710;BME280;10516;51.518;9.864;2023-01-28T12:43:58;100031.78;;;-0.81;73.09
20710;BME280;10516;51.518;9.864;2023-01-28T12:47:14;100036.88;;;-1.07;73.76
20710;BME280;10516;51.518;9.864;2023-01-28T12:49:24;100027.56;;;-1.19;74.23
20710;BME280;10516;51.518;9.864;2023-01-28T12:52:11;100014.31;;;-1.17;74.28
20710;BME280;10516;51.518;9.864;2023-01-28T12:57:14;100013.44;;;-0.81;73.74
20710;BME280;10516;51.518;9.864;2023-01-28T13:00:21;100012.63;;;-0.64;75.67
20710;BME280;10516;51.518;9.864;2023-01-28T13:05:35;99999.88;;;-0.06;76.16
20710;BME280;10516;51.518;9.864;2023-01-28T13:08:08;100002.19;;;-0.03;74.70
20710;BME280;10516;51.518;9.864;2023-01-28T13:10:42;99999.22;;;0.18;75.35
20710;BME280;10516;51.518;9.864;2023-01-28T13:13:33;99998.31;;;0.52;73.23
20710;BME280;10516;51.518;9.864;2023-01-28T13:16:00;99986.81;;;0.53;73.75
20710;BME280;10516;51.518;9.864;2023-01-28T13:20:57;99993.00;;;0.78;76.49
20710;BME280;10516;51.518;9.864;2023-01-28T13:28:51;100004.03;;;1.39;75.02
20710;BME280;10516;51.518;9.864;2023-01-28T13:31:20;99993.88;;;1.52;74.55
20710;BME280;10516;51.518;9.864;2023-01-28T13:33:48;100000.63;;;1.63;73.86
20710;BME280;10516;51.518;9.864;2023-01-28T13:36:45;99984.66;;;1.65;73.78
20710;BME280;10516;51.518;9.864;2023-01-28T13:46:42;99959.34;;;1.88;72.30
20710;BME280;10516;51.518;9.864;2023-01-28T13:49:16;99950.75;;;1.86;72.30
20710;BME280;10516;51.518;9.864;2023-01-28T13:51:57;99940.91;;;1.80;71.66
20710;BME280;10516;51.518;9.864;2023-01-28T13:54:23;99931.38;;;1.87;71.33
20710;BME280;10516;51.518;9.864;2023-01-28T13:56:55;99926.25;;;2.01;70.86
20710;BME280;10516;51.518;9.864;2023-01-28T14:07:24;99909.00;;;1.83;70.41
20710;BME280;10516;51.518;9.864;2023-01-28T14:16:03;99952.44;;;1.79;69.82
20710;BME280;10516;51.518;9.864;2023-01-28T14:18:32;99951.44;;;1.56;69.56
20710;BME280;10516;51.518;9.864;2023-01-28T14:21:01;99959.63;;;1.28;69.10
20710;BME280;10516;51.518;9.864;2023-01-28T14:23:28;99964.38;;;1.25;68.89
20710;BME280;10516;51.518;9.864;2023-01-28T14:31:46;99942.69;;;1.15;69.08
20710;BME280;10516;51.518;9.864;2023-01-28T14:36:47;99952.06;;;1.33;69.62
20710;BME280;10516;51.518;9.864;2023-01-28T14:40:16;99960.47;;;1.45;69.76
20710;BME280;10516;51.518;9.864;2023-01-28T14:42:25;99963.94;;;1.37;68.60
20710;BME280;10516;51.518;9.864;2023-01-28T14:51:00;99954.44;;;0.87;68.52
20710;BME280;10516;51.518;9.864;2023-01-28T14:53:40;99971.88;;;0.96;69.41
20710;BME280;10516;51.518;9.864;2023-01-28T14:56:06;99990.47;;;1.02;69.34
20710;BME280;10516;51.518;9.864;2023-01-28T14:58:43;99996.88;;;1.08;69.56
20710;BME280;10516;51.518;9.864;2023-01-28T15:01:27;100000.97;;;1.02;70.38
20710;BME280;10516;51.518;9.864;2023-01-28T15:03:53;99984.50;;;0.92;70.73